首页
METAR-TAF:

METAR-TAF

机场 :

沙姆沙伊赫国际机场

沙姆沙伊赫, 埃及

纬度: 27-58N, 经度: 034-23E, 海拔: 50米

当前天气观测

该预报发布于1小时和6分钟前的09:00 UTC
风速13节,风向
温度 31°C
湿度 36%
气压 1011 hPa
能见度10公里或以上
1500米以下无云,无积雨云

METAR: HESH 300900Z 01013KT CAVOK 31/14 Q1011 NOSIG

时间: 12:06 (10:06 UTC)

预报

该预报发布于5小时和6分钟前的05:00 UTC
预报有效从30日的 06点(UTC)到 31日的 12点(UTC)
风速15节,风向北转东北
能见度10公里或以上
1500米以下无云,无积雨云

TAF: HESH 300500Z 3006/3112 03015KT CAVOK

超过4000个机场的气象观测和天气预报(METAR&TAF报告)。

可查询的气象台以黄色和红色小点在地图上表示。

将鼠标移到小点上方,可查看气象台名称。

然后点击查看天气观测和预报。

如需切换地图:点击带黑十字的绿色按钮放大地图;点击带横线的绿色按钮缩小地图;或者点击绿色箭头查看邻近地区的地图。


METAR-TAF: